createdAt,value
2024-05-09T00:03:06.995Z,9
2024-05-09T00:07:49.089Z,9
2024-05-09T00:12:31.387Z,9
2024-05-09T00:17:13.755Z,9
2024-05-09T00:21:56.040Z,9
2024-05-09T00:26:38.292Z,9
2024-05-09T00:31:19.502Z,9
2024-05-09T00:36:01.799Z,9
2024-05-09T00:40:44.151Z,9
2024-05-09T00:45:26.419Z,9
2024-05-09T00:50:08.621Z,9
2024-05-09T00:54:50.926Z,9
2024-05-09T00:59:33.220Z,9
2024-05-09T01:04:14.545Z,9
2024-05-09T01:08:56.871Z,9
2024-05-09T01:13:39.062Z,9
2024-05-09T01:18:20.343Z,9
2024-05-09T01:27:44.946Z,9
2024-05-09T01:32:27.271Z,9
2024-05-09T01:37:09.450Z,9
2024-05-09T01:41:51.754Z,9
2024-05-09T01:46:34.096Z,9
2024-05-09T01:51:16.362Z,9
2024-05-09T01:55:58.668Z,9
2024-05-09T02:00:40.867Z,9
2024-05-09T02:05:23.187Z,4
2024-05-09T02:10:05.478Z,9
2024-05-09T02:14:47.784Z,4
2024-05-09T02:19:28.979Z,4
2024-05-09T02:24:11.293Z,9
2024-05-09T02:28:53.960Z,9
2024-05-09T02:33:35.893Z,9
2024-05-09T02:38:18.201Z,9
2024-05-09T02:43:00.415Z,9
2024-05-09T02:47:42.712Z,9
2024-05-09T02:52:25.010Z,9
2024-05-09T02:57:07.310Z,9
2024-05-09T03:06:31.815Z,15
2024-05-09T03:11:14.133Z,20
2024-05-09T03:15:56.430Z,31
2024-05-09T03:20:38.640Z,58
2024-05-09T03:25:19.941Z,57
2024-05-09T03:30:02.242Z,125
2024-05-09T03:34:44.593Z,224
2024-05-09T03:39:26.845Z,351
2024-05-09T03:48:51.351Z,704
2024-05-09T03:53:33.683Z,906
2024-05-09T03:58:16.001Z,1121
2024-05-09T04:02:58.259Z,1347
2024-05-09T04:07:40.466Z,1567
2024-05-09T04:12:22.781Z,1783
2024-05-09T04:17:05.064Z,2009
2024-05-09T04:21:47.381Z,2235
2024-05-09T04:26:28.681Z,2433
2024-05-09T04:40:35.500Z,3009
2024-05-09T04:45:16.812Z,3158
2024-05-09T04:49:58.092Z,3311
2024-05-09T04:54:40.398Z,3474
2024-05-09T04:59:22.664Z,3631
2024-05-09T05:04:04.907Z,3776
2024-05-09T05:08:47.206Z,3910
2024-05-09T05:13:28.671Z,4029
2024-05-09T05:22:53.947Z,4279
2024-05-09T05:27:35.319Z,4425
2024-05-09T05:32:17.623Z,4548
2024-05-09T05:36:59.945Z,4684
2024-05-09T05:41:42.311Z,4818
2024-05-09T05:46:24.499Z,4928
2024-05-09T05:51:06.740Z,4993
2024-05-09T05:55:49.047Z,5086
2024-05-09T06:00:31.364Z,5148
2024-05-09T06:09:55.968Z,5339
2024-05-09T06:14:37.163Z,5453
2024-05-09T06:24:00.766Z,5733
2024-05-09T06:28:43.140Z,5882
2024-05-09T06:33:25.480Z,6031
2024-05-09T06:38:07.604Z,6190
2024-05-09T06:42:49.883Z,6328
2024-05-09T06:47:32.206Z,6468
2024-05-09T07:01:39.003Z,6910
2024-05-09T07:06:21.436Z,7186
2024-05-09T07:11:03.816Z,7420
2024-05-09T07:15:45.908Z,7538
2024-05-09T07:20:28.143Z,7537
2024-05-09T07:25:10.421Z,7622
2024-05-09T07:29:52.750Z,7845
2024-05-09T07:34:33.926Z,27529
2024-05-09T07:39:16.267Z,12468
2024-05-09T07:43:58.665Z,11068
2024-05-09T07:48:40.831Z,11247
2024-05-09T07:53:23.075Z,9348
2024-05-09T07:58:05.350Z,11298
2024-05-09T08:02:47.655Z,9120
2024-05-09T08:07:29.959Z,12324
2024-05-09T08:12:12.163Z,11420
2024-05-09T08:16:54.471Z,11528
2024-05-09T08:26:19.067Z,14906
2024-05-09T08:31:01.744Z,13859
2024-05-09T08:35:42.574Z,14430
2024-05-09T08:40:23.997Z,19460
2024-05-09T08:45:06.300Z,15518
2024-05-09T08:49:48.620Z,21850
2024-05-09T08:54:30.792Z,17613
2024-05-09T08:59:13.005Z,21335
2024-05-09T09:03:54.367Z,29326
2024-05-09T09:08:36.613Z,13956
2024-05-09T09:18:01.221Z,52783
2024-05-09T09:22:43.432Z,49516
2024-05-09T09:27:25.769Z,19834
2024-05-09T09:32:08.040Z,16835
2024-05-09T09:41:32.536Z,58230
2024-05-09T09:46:14.834Z,52681
2024-05-09T09:50:57.200Z,56563
2024-05-09T09:55:38.467Z,28565
2024-05-09T10:00:20.767Z,32788
2024-05-09T10:09:44.261Z,22480
2024-05-09T10:23:51.770Z,24902
2024-05-09T10:28:33.414Z,25391
2024-05-09T10:33:15.677Z,24638
2024-05-09T10:37:58.009Z,63683
2024-05-09T10:42:40.368Z,28928
2024-05-09T10:47:22.499Z,30224
2024-05-09T10:52:04.867Z,31742
2024-05-09T10:56:47.104Z,29370
2024-05-09T11:01:29.411Z,23694
2024-05-09T11:06:11.789Z,29145
2024-05-09T11:10:53.994Z,27710
2024-05-09T11:15:36.217Z,31452
2024-05-09T11:20:17.515Z,36776
2024-05-09T11:24:59.829Z,32368
2024-05-09T11:29:42.044Z,29757
2024-05-09T11:34:24.487Z,28207
2024-05-09T11:39:06.650Z,18773
2024-05-09T11:43:48.934Z,29767
2024-05-09T11:48:31.135Z,23769
2024-05-09T11:53:13.498Z,25331
2024-05-09T12:02:38.065Z,33536
2024-05-09T12:07:20.261Z,34858
2024-05-09T12:12:02.563Z,34543
2024-05-09T12:16:43.892Z,26196
2024-05-09T12:26:08.555Z,21962
2024-05-09T12:30:50.776Z,30084
2024-05-09T12:35:32.122Z,19683
2024-05-09T12:40:14.291Z,18880
2024-05-09T12:44:56.599Z,18925
2024-05-09T12:49:38.956Z,24688
2024-05-09T12:54:21.211Z,23729
2024-05-09T12:59:04.221Z,20639
2024-05-09T13:03:45.895Z,29182
2024-05-09T13:17:52.612Z,24969
2024-05-09T13:22:34.906Z,27581
2024-05-09T13:27:17.211Z,28765
2024-05-09T13:31:59.437Z,33004
2024-05-09T13:36:41.720Z,4989
2024-05-09T13:41:24.047Z,27650
2024-05-09T13:46:05.339Z,27054
2024-05-09T13:50:46.657Z,27242
2024-05-09T14:00:11.135Z,22686
2024-05-09T14:04:53.447Z,16302
2024-05-09T14:09:35.739Z,15337
2024-05-09T14:14:18.191Z,18012
2024-05-09T14:23:42.557Z,28689
2024-05-09T14:28:24.960Z,31425
2024-05-09T14:33:07.229Z,18340
2024-05-09T14:37:49.473Z,16686
2024-05-09T14:42:31.668Z,16871
2024-05-09T14:47:15.182Z,21853
2024-05-09T14:51:56.288Z,19554
2024-05-09T14:56:37.592Z,21969
2024-05-09T15:01:19.904Z,22049
2024-05-09T15:06:02.128Z,27009
2024-05-09T15:10:44.408Z,29421
2024-05-09T15:20:09.013Z,27476
2024-05-09T15:24:51.216Z,20013
2024-05-09T15:29:33.515Z,16070
2024-05-09T15:34:15.871Z,57811
2024-05-09T15:38:58.160Z,57992
2024-05-09T15:43:40.344Z,50256
2024-05-09T15:48:22.637Z,49698
2024-05-09T15:53:04.940Z,46423
2024-05-09T15:57:47.246Z,45350
2024-05-09T16:02:29.456Z,42639
2024-05-09T16:07:11.748Z,42116
2024-05-09T16:11:53.068Z,42774
2024-05-09T16:21:17.727Z,32226
2024-05-09T16:26:00.042Z,14205
2024-05-09T16:30:41.301Z,26633
2024-05-09T16:35:23.509Z,25273
2024-05-09T16:40:05.786Z,22869
2024-05-09T16:44:48.095Z,20823
2024-05-09T16:49:30.293Z,18704
2024-05-09T16:54:12.607Z,17176
2024-05-09T16:58:54.906Z,15815
2024-05-09T17:08:19.414Z,14859
2024-05-09T17:13:01.732Z,18433
2024-05-09T17:17:43.019Z,18130
2024-05-09T17:22:25.321Z,16540
2024-05-09T17:27:07.674Z,13986
2024-05-09T17:31:48.972Z,11094
2024-05-09T17:36:31.238Z,10681
2024-05-09T17:41:13.506Z,7916
2024-05-09T17:45:55.868Z,7546
2024-05-09T17:50:38.052Z,4664
2024-05-09T17:55:20.290Z,3786
2024-05-09T18:00:02.557Z,3244
2024-05-09T18:04:43.931Z,2690
2024-05-09T18:09:26.256Z,2167
2024-05-09T18:14:08.505Z,1791
2024-05-09T18:18:50.780Z,1555
2024-05-09T18:23:33.042Z,1263
2024-05-09T18:28:14.342Z,976
2024-05-09T18:32:56.585Z,780
2024-05-09T18:37:38.891Z,580
2024-05-09T18:42:21.097Z,383
2024-05-09T18:47:03.405Z,238
2024-05-09T18:51:44.708Z,134
2024-05-09T18:56:26.059Z,83
2024-05-09T19:01:08.309Z,51
2024-05-09T19:05:50.726Z,41
2024-05-09T19:10:32.807Z,18
2024-05-09T19:15:15.102Z,15
2024-05-09T19:19:57.415Z,12
2024-05-09T19:29:21.926Z,9
2024-05-09T19:34:04.221Z,9
2024-05-09T19:38:46.526Z,9
2024-05-09T19:43:28.982Z,9
2024-05-09T19:48:11.095Z,9
2024-05-09T19:52:53.342Z,9
2024-05-09T19:57:35.658Z,9
2024-05-09T20:02:17.955Z,9
2024-05-09T20:06:59.242Z,9
2024-05-09T20:16:23.814Z,9
2024-05-09T20:21:05.063Z,9
2024-05-09T20:25:46.448Z,9
2024-05-09T20:30:28.671Z,9
2024-05-09T20:35:10.971Z,9
2024-05-09T20:39:53.179Z,9
2024-05-09T20:44:35.492Z,9
2024-05-09T20:49:17.777Z,9
2024-05-09T20:54:00.086Z,9
2024-05-09T20:58:42.384Z,9
2024-05-09T21:03:23.689Z,9
2024-05-09T21:08:06.190Z,9
2024-05-09T21:12:47.376Z,9
2024-05-09T21:17:29.678Z,9
2024-05-09T21:22:11.802Z,9
2024-05-09T21:26:54.343Z,9
2024-05-09T21:31:36.301Z,9
2024-05-09T21:36:18.847Z,9
2024-05-09T21:41:00.008Z,9
2024-05-09T21:45:42.219Z,9
2024-05-09T21:50:24.557Z,9
2024-05-09T21:55:06.734Z,9
2024-05-09T21:59:49.185Z,9
2024-05-09T22:04:31.352Z,9
2024-05-09T22:09:13.764Z,9
2024-05-09T22:13:55.838Z,9
2024-05-09T22:18:38.251Z,9
2024-05-09T22:23:20.442Z,9
2024-05-09T22:28:02.827Z,9
2024-05-09T22:37:27.505Z,9
2024-05-09T22:42:08.593Z,9
2024-05-09T22:46:51.382Z,9
2024-05-09T22:51:33.165Z,9
2024-05-09T22:56:15.591Z,9
2024-05-09T23:00:57.676Z,9
2024-05-09T23:05:39.983Z,9
2024-05-09T23:10:22.272Z,9
2024-05-09T23:15:04.843Z,9
2024-05-09T23:24:29.095Z,9
2024-05-09T23:29:11.387Z,9
2024-05-09T23:33:53.868Z,9
2024-05-09T23:38:35.932Z,9
2024-05-09T23:43:17.270Z,9
2024-05-09T23:47:59.678Z,9
2024-05-09T23:52:41.797Z,9
2024-05-09T23:57:24.100Z,9
